Time;durP1;ratioP1;P1;durP2;ratioP2;P2;SDS_P1;SDS_P2;PMS_P1;PMS_P2;Temp;Humidity;BMP_temperature;BMP_pressure;BME280_temperature;BME280_humidity;BME280_pressure;Samples;Min_cycle;Max_cycle;Signal;HPM_P1;HPM_P2
2022/10/14 00:01:32;;;;;;;;;;;11.00;99.90;;;;;;5090046;28;20007;-88
2022/10/14 00:03:58;;;;;;;;;;;11.00;99.90;;;;;;5066218;28;19911;-88
2022/10/14 00:06:25;;;;;;;;;;;11.00;99.90;;;;;;5097937;28;19908;-88
2022/10/14 00:08:52;;;;;;;;;;;11.00;99.90;;;;;;5065432;28;19923;-88
2022/10/14 00:11:28;;;;;;;;;;;11.00;99.90;;;;;;5076329;28;20109;-88
2022/10/14 00:13:58;;;;;;;;;;;11.00;99.90;;;;;;5077018;28;19915;-88
2022/10/14 00:16:31;;;;;;;;;;;11.00;99.90;;;;;;5100830;28;19957;-88
2022/10/14 00:22:25;;;;;;;;;;;11.00;99.90;;;;;;5075999;28;20160;-88
2022/10/14 00:25:19;;;;;;;;;;;10.90;99.90;;;;;;5078027;28;20065;-89
2022/10/14 00:27:44;;;;;;;;;;;10.70;99.90;;;;;;5064364;28;20045;-87
2022/10/14 00:30:11;;;;;;;;;;;10.60;99.90;;;;;;5077202;28;19904;-88
2022/10/14 00:32:36;;;;;;;;;;;10.50;99.90;;;;;;5068641;28;19958;-88
2022/10/14 00:35:02;;;;;;;;;;;10.40;99.90;;;;;;5076297;28;19937;-89
2022/10/14 00:37:28;;;;;;;;;;;10.20;99.90;;;;;;5068272;28;19911;-88
2022/10/14 00:39:55;;;;;;;;;;;10.10;99.90;;;;;;5081309;28;19912;-90
2022/10/14 00:42:23;;;;;;;;;;;10.00;99.90;;;;;;5094349;28;19912;-87
2022/10/14 00:44:49;;;;;;;;;;;10.10;99.90;;;;;;5081324;28;20136;-89
2022/10/14 00:47:15;;;;;;;;;;;10.10;99.90;;;;;;5079383;28;19908;-88
2022/10/14 00:53:10;;;;;;;;;;;10.40;99.90;;;;;;5086645;28;20091;-88
2022/10/14 00:55:37;;;;;;;;;;;10.50;99.90;;;;;;5076000;28;19908;-88
2022/10/14 00:58:03;;;;;;;;;;;10.50;99.90;;;;;;5061535;28;19915;-88
2022/10/14 01:00:28;;;;;;;;;;;10.50;99.90;;;;;;5086085;28;20065;-88
2022/10/14 01:02:55;;;;;;;;;;;10.60;99.90;;;;;;5071845;28;19912;-89
2022/10/14 01:05:20;;;;;;;;;;;10.60;99.90;;;;;;5085952;28;20037;-88
2022/10/14 01:07:52;;;;;;;;;;;10.60;99.90;;;;;;5100846;28;20337;-88
2022/10/14 01:10:41;;;;;;;;;;;10.60;99.90;;;;;;5086578;28;19908;-88
2022/10/14 01:13:07;;;;;;;;;;;10.60;99.90;;;;;;5061120;28;19915;-88
2022/10/14 01:15:42;;;;;;;;;;;10.70;99.90;;;;;;5082251;28;19909;-88
2022/10/14 01:18:14;;;;;;;;;;;10.70;99.90;;;;;;5079203;28;20354;-88
2022/10/14 01:20:48;;;;;;;;;;;10.70;99.90;;;;;;5077747;28;19909;-88
2022/10/14 01:23:13;;;;;;;;;;;10.80;99.90;;;;;;5078159;28;19912;-88
2022/10/14 01:25:55;;;;;;;;;;;10.80;99.90;;;;;;5076052;28;20478;-88
2022/10/14 01:28:29;;;;;;;;;;;10.80;99.90;;;;;;5077361;28;20034;-88
2022/10/14 01:30:58;;;;;;;;;;;10.70;99.90;;;;;;5079565;28;20091;-88
2022/10/14 01:33:25;;;;;;;;;;;10.60;99.90;;;;;;5072447;28;19951;-88
2022/10/14 01:35:55;;;;;;;;;;;10.60;99.90;;;;;;5078200;28;20046;-88
2022/10/14 01:38:32;;;;;;;;;;;10.60;99.90;;;;;;5069796;28;20006;-88
2022/10/14 01:41:05;;;;;;;;;;;10.50;99.90;;;;;;5078967;28;19922;-87
2022/10/14 01:43:31;;;;;;;;;;;10.60;99.90;;;;;;5089335;28;19923;-88
2022/10/14 01:45:58;;;;;;;;;;;10.50;99.90;;;;;;5074787;28;19908;-89
2022/10/14 01:48:26;;;;;;;;;;;10.60;99.90;;;;;;5102929;28;20029;-88
2022/10/14 01:50:53;;;;;;;;;;;10.60;99.90;;;;;;5071978;28;20027;-88
2022/10/14 01:53:24;;;;;;;;;;;10.70;99.90;;;;;;5086441;28;19908;-88
2022/10/14 01:55:52;;;;;;;;;;;10.70;99.90;;;;;;5072607;28;20054;-88
2022/10/14 01:58:18;;;;;;;;;;;10.80;99.90;;;;;;5059221;28;19958;-88
2022/10/14 02:00:46;;;;;;;;;;;10.80;99.90;;;;;;5089627;28;20236;-88
2022/10/14 02:03:34;;;;;;;;;;;10.70;99.90;;;;;;5059601;28;20049;-88
2022/10/14 02:06:05;;;;;;;;;;;10.70;99.90;;;;;;5063197;28;19908;-88
2022/10/14 02:08:31;;;;;;;;;;;10.80;99.90;;;;;;5075769;28;20043;-88
2022/10/14 02:11:16;;;;;;;;;;;10.80;99.90;;;;;;5068921;28;19915;-89
2022/10/14 02:14:01;;;;;;;;;;;10.80;99.90;;;;;;5063903;28;20063;-88
2022/10/14 02:16:37;;;;;;;;;;;10.80;99.90;;;;;;5071512;28;20038;-89
2022/10/14 02:19:06;;;;;;;;;;;10.80;99.90;;;;;;5063690;28;19907;-87
2022/10/14 02:21:55;;;;;;;;;;;10.70;99.90;;;;;;5074133;28;20042;-88
2022/10/14 02:24:30;;;;;;;;;;;10.70;99.90;;;;;;5069926;28;19913;-88
2022/10/14 02:26:57;;;;;;;;;;;10.80;99.90;;;;;;5088249;28;19908;-88
2022/10/14 02:29:24;;;;;;;;;;;10.80;99.90;;;;;;5057124;28;19909;-88
2022/10/14 02:31:53;;;;;;;;;;;10.80;99.90;;;;;;5089353;28;19962;-88
2022/10/14 02:34:24;;;;;;;;;;;10.80;99.90;;;;;;5058661;28;19984;-88
2022/10/14 02:36:51;;;;;;;;;;;10.80;99.90;;;;;;5090454;28;19972;-88
2022/10/14 02:39:19;;;;;;;;;;;10.80;99.90;;;;;;5060504;28;20038;-88
2022/10/14 02:41:45;;;;;;;;;;;10.80;99.90;;;;;;5076126;28;19917;-88
2022/10/14 02:44:10;;;;;;;;;;;10.80;99.90;;;;;;5071788;28;20038;-88
2022/10/14 02:46:38;;;;;;;;;;;10.90;99.90;;;;;;5075174;28;19987;-88
2022/10/14 02:49:03;;;;;;;;;;;10.80;99.90;;;;;;5088952;28;19931;-87
2022/10/14 02:51:29;;;;;;;;;;;10.90;99.90;;;;;;5056876;28;19909;-88
2022/10/14 02:53:56;;;;;;;;;;;10.80;99.90;;;;;;5090492;28;20043;-88
2022/10/14 02:56:23;;;;;;;;;;;10.90;99.90;;;;;;5059001;28;19909;-88
2022/10/14 02:58:48;;;;;;;;;;;10.80;99.90;;;;;;5077069;28;20031;-88
2022/10/14 03:01:14;;;;;;;;;;;10.80;99.90;;;;;;5070593;28;20326;-88
2022/10/14 03:03:40;;;;;;;;;;;10.80;99.90;;;;;;5075392;28;20352;-87
2022/10/14 03:06:06;;;;;;;;;;;10.80;99.90;;;;;;5073875;28;19958;-88
2022/10/14 03:08:32;;;;;;;;;;;10.80;99.90;;;;;;5074264;28;19908;-88
2022/10/14 03:11:00;;;;;;;;;;;10.80;99.90;;;;;;5074978;28;20355;-88
2022/10/14 03:13:26;;;;;;;;;;;10.80;99.90;;;;;;5061828;28;20057;-88
2022/10/14 03:16:07;;;;;;;;;;;10.80;99.90;;;;;;5082533;28;19908;-88
2022/10/14 03:18:38;;;;;;;;;;;10.80;99.90;;;;;;5063339;28;19908;-88
2022/10/14 03:21:14;;;;;;;;;;;10.90;99.90;;;;;;5074377;28;20030;-87
2022/10/14 03:23:41;;;;;;;;;;;10.90;99.90;;;;;;5072689;28;20371;-88
2022/10/14 03:26:07;;;;;;;;;;;10.80;99.90;;;;;;5077376;28;20029;-88
2022/10/14 03:28:38;;;;;;;;;;;10.90;99.90;;;;;;5074335;28;20036;-88
2022/10/14 03:31:20;;;;;;;;;;;10.80;99.90;;;;;;5067430;28;19915;-88
2022/10/14 03:34:06;;;;;;;;;;;10.90;99.90;;;;;;5073139;28;19916;-88
2022/10/14 03:36:49;;;;;;;;;;;10.90;99.90;;;;;;5086927;28;20358;-88
2022/10/14 03:39:14;;;;;;;;;;;10.90;99.90;;;;;;5062343;28;19915;-89
2022/10/14 03:41:45;;;;;;;;;;;10.90;99.90;;;;;;5074532;28;20131;-88
2022/10/14 03:44:14;;;;;;;;;;;10.90;99.90;;;;;;5069674;28;19931;-88
2022/10/14 03:46:45;;;;;;;;;;;10.90;99.90;;;;;;5076083;28;20435;-88
2022/10/14 03:49:12;;;;;;;;;;;10.90;99.90;;;;;;5070493;28;20038;-88
2022/10/14 03:51:38;;;;;;;;;;;10.90;99.90;;;;;;5074784;28;20362;-88
2022/10/14 03:54:11;;;;;;;;;;;10.90;99.90;;;;;;5072271;28;20016;-88
2022/10/14 03:56:36;;;;;;;;;;;10.90;99.90;;;;;;5074508;28;19924;-88
2022/10/14 03:59:02;;;;;;;;;;;10.90;99.90;;;;;;5077563;28;20282;-88
2022/10/14 04:01:28;;;;;;;;;;;10.90;99.90;;;;;;5066617;28;19905;-88
2022/10/14 04:04:07;;;;;;;;;;;10.90;99.90;;;;;;5084936;27;19954;-88
2022/10/14 04:06:35;;;;;;;;;;;10.90;99.90;;;;;;5095498;28;19955;-88
2022/10/14 04:09:03;;;;;;;;;;;10.90;99.90;;;;;;5062597;28;20003;-88
2022/10/14 04:11:34;;;;;;;;;;;10.90;99.90;;;;;;5100834;28;19909;-88
2022/10/14 04:14:04;;;;;;;;;;;11.00;99.90;;;;;;5072815;28;19908;-88
2022/10/14 04:16:33;;;;;;;;;;;10.90;99.90;;;;;;5081150;28;19908;-88
2022/10/14 04:19:06;;;;;;;;;;;10.90;99.90;;;;;;5063424;28;20301;-88
2022/10/14 04:21:32;;;;;;;;;;;10.80;99.90;;;;;;5070432;28;19960;-87
2022/10/14 04:23:58;;;;;;;;;;;10.90;99.90;;;;;;5055987;28;19984;-86
2022/10/14 04:26:36;;;;;;;;;;;10.80;99.90;;;;;;5071495;28;20355;-87
2022/10/14 04:29:03;;;;;;;;;;;10.90;99.90;;;;;;5060527;28;20104;-87
2022/10/14 04:31:36;;;;;;;;;;;10.90;99.90;;;;;;5088407;28;19908;-87
2022/10/14 04:34:02;;;;;;;;;;;11.00;99.90;;;;;;5062676;28;20283;-87
2022/10/14 04:36:42;;;;;;;;;;;10.90;99.90;;;;;;5089512;28;19957;-87
2022/10/14 04:39:33;;;;;;;;;;;11.00;99.90;;;;;;5063168;28;20143;-87
2022/10/14 04:41:59;;;;;;;;;;;11.00;99.90;;;;;;5056196;28;19919;-87
2022/10/14 04:44:25;;;;;;;;;;;10.90;99.90;;;;;;5069887;28;19908;-87
2022/10/14 04:46:53;;;;;;;;;;;10.90;99.90;;;;;;5098302;28;19918;-86
2022/10/14 04:49:21;;;;;;;;;;;10.90;99.90;;;;;;5102152;28;20355;-88
2022/10/14 04:52:00;;;;;;;;;;;11.00;99.90;;;;;;5082295;28;20267;-87
2022/10/14 04:54:33;;;;;;;;;;;10.90;99.90;;;;;;5069318;28;19915;-88
2022/10/14 04:56:59;;;;;;;;;;;11.00;99.90;;;;;;5078501;28;19908;-87
2022/10/14 04:59:25;;;;;;;;;;;11.00;99.90;;;;;;5076928;28;19915;-87
2022/10/14 05:02:21;;;;;;;;;;;11.00;99.90;;;;;;5083897;28;19908;-87
2022/10/14 05:04:58;;;;;;;;;;;11.00;99.90;;;;;;5069844;28;19915;-87
2022/10/14 05:07:26;;;;;;;;;;;11.00;99.90;;;;;;5067810;28;19915;-87
2022/10/14 05:10:00;;;;;;;;;;;11.00;99.90;;;;;;5079454;28;19957;-87
2022/10/14 05:12:36;;;;;;;;;;;10.90;99.90;;;;;;5068630;28;19943;-87
2022/10/14 05:15:04;;;;;;;;;;;10.90;99.90;;;;;;5063754;28;19916;-87
2022/10/14 05:17:38;;;;;;;;;;;10.90;99.90;;;;;;5075898;28;19963;-87
2022/10/14 05:20:04;;;;;;;;;;;10.90;99.90;;;;;;5073838;28;19908;-87
2022/10/14 05:22:31;;;;;;;;;;;10.80;99.90;;;;;;5059317;28;19963;-87
2022/10/14 05:24:56;;;;;;;;;;;10.90;99.90;;;;;;5071162;28;20371;-87
2022/10/14 05:27:38;;;;;;;;;;;10.90;99.90;;;;;;5069114;28;20019;-87
2022/10/14 05:30:04;;;;;;;;;;;10.90;99.90;;;;;;5067312;28;19994;-87
2022/10/14 05:32:32;;;;;;;;;;;10.90;99.90;;;;;;5067706;28;20044;-87
2022/10/14 05:35:04;;;;;;;;;;;10.90;99.90;;;;;;5077657;28;20138;-87
2022/10/14 05:41:03;;;;;;;;;;;10.80;99.90;;;;;;5064949;28;20393;-87
2022/10/14 05:43:29;;;;;;;;;;;10.90;99.90;;;;;;5073385;28;19912;-87
2022/10/14 05:45:55;;;;;;;;;;;10.90;99.90;;;;;;5068267;28;19915;-87
2022/10/14 05:48:23;;;;;;;;;;;10.90;99.90;;;;;;5074314;28;20355;-88
2022/10/14 05:50:49;;;;;;;;;;;10.90;99.90;;;;;;5068564;28;20094;-88
2022/10/14 05:53:18;;;;;;;;;;;10.90;99.90;;;;;;5098934;27;19908;-87
2022/10/14 05:55:47;;;;;;;;;;;11.00;99.90;;;;;;5069243;28;20492;-88
2022/10/14 05:58:13;;;;;;;;;;;11.00;99.90;;;;;;5053452;28;19926;-88
2022/10/14 06:00:41;;;;;;;;;;;11.00;99.90;;;;;;5082384;28;20368;-88
2022/10/14 06:03:12;;;;;;;;;;;11.10;99.90;;;;;;5055879;28;20284;-88
2022/10/14 06:05:39;;;;;;;;;;;11.10;99.90;;;;;;5084571;28;20033;-87
2022/10/14 06:08:04;;;;;;;;;;;11.10;99.90;;;;;;5058082;28;19954;-88
2022/10/14 06:10:33;;;;;;;;;;;11.00;99.90;;;;;;5065467;28;20340;-88
2022/10/14 06:12:59;;;;;;;;;;;11.10;99.90;;;;;;5078361;28;19908;-88
2022/10/14 06:15:27;;;;;;;;;;;11.10;99.90;;;;;;5053817;28;19904;-87
2022/10/14 06:17:53;;;;;;;;;;;11.10;99.90;;;;;;5058871;28;19912;-87
2022/10/14 06:20:19;;;;;;;;;;;11.10;99.90;;;;;;5054621;28;20048;-89
2022/10/14 06:22:45;;;;;;;;;;;11.10;99.90;;;;;;5073492;28;20769;-87
2022/10/14 06:25:10;;;;;;;;;;;11.20;99.90;;;;;;5061083;28;20061;-88
2022/10/14 06:27:36;;;;;;;;;;;11.10;99.90;;;;;;5076163;28;19951;-88
2022/10/14 06:30:02;;;;;;;;;;;11.10;99.90;;;;;;5069656;28;19998;-87
2022/10/14 06:32:28;;;;;;;;;;;11.10;99.90;;;;;;5057018;28;19912;-87
2022/10/14 06:34:53;;;;;;;;;;;11.20;99.90;;;;;;5103580;28;19915;-88
2022/10/14 06:37:19;;;;;;;;;;;11.10;99.90;;;;;;5075687;28;20038;-88
2022/10/14 06:39:44;;;;;;;;;;;11.10;99.90;;;;;;5073870;28;19908;-88
2022/10/14 06:42:10;;;;;;;;;;;11.20;99.90;;;;;;5060031;28;20417;-88
2022/10/14 06:44:38;;;;;;;;;;;11.20;99.90;;;;;;5072707;28;19912;-87
2022/10/14 06:47:04;;;;;;;;;;;11.20;99.90;;;;;;5056549;28;19918;-88
2022/10/14 06:49:30;;;;;;;;;;;11.20;99.90;;;;;;5069488;28;19922;-88
2022/10/14 06:51:56;;;;;;;;;;;11.20;99.90;;;;;;5074034;28;19908;-88
2022/10/14 06:54:21;;;;;;;;;;;11.10;99.90;;;;;;5064670;28;19947;-88
2022/10/14 06:56:47;;;;;;;;;;;11.10;99.90;;;;;;5071480;28;19951;-87
2022/10/14 06:59:13;;;;;;;;;;;11.10;99.90;;;;;;5071476;28;19916;-87
2022/10/14 07:01:39;;;;;;;;;;;11.10;99.90;;;;;;5069977;28;19908;-87
2022/10/14 07:04:04;;;;;;;;;;;11.20;99.90;;;;;;5068059;28;19958;-88
2022/10/14 07:06:30;;;;;;;;;;;11.30;99.90;;;;;;5069108;28;20067;-87
2022/10/14 07:08:56;;;;;;;;;;;11.30;99.90;;;;;;5073913;28;19908;-88
2022/10/14 07:11:22;;;;;;;;;;;11.40;99.90;;;;;;5075011;28;20045;-88
2022/10/14 07:13:47;;;;;;;;;;;11.40;99.90;;;;;;5073639;28;20408;-88
2022/10/14 07:16:13;;;;;;;;;;;11.50;99.90;;;;;;5074589;28;19912;-88
2022/10/14 07:18:38;;;;;;;;;;;11.70;99.90;;;;;;5078698;28;19912;-88
2022/10/14 07:21:38;;;;;;;;;;;11.70;99.90;;;;;;5082680;28;19994;-88
2022/10/14 07:24:05;;;;;;;;;;;11.80;99.90;;;;;;5057550;28;20404;-87
2022/10/14 07:26:31;;;;;;;;;;;11.70;99.90;;;;;;5056916;28;20049;-88
2022/10/14 07:28:56;;;;;;;;;;;11.70;99.90;;;;;;5062469;28;20041;-88
2022/10/14 07:31:22;;;;;;;;;;;11.70;99.90;;;;;;5076651;28;19908;-88
2022/10/14 07:33:47;;;;;;;;;;;11.70;99.90;;;;;;5079211;28;20047;-88
2022/10/14 07:36:14;;;;;;;;;;;11.70;99.90;;;;;;5070923;28;20092;-88
2022/10/14 07:38:55;;;;;;;;;;;11.70;99.90;;;;;;5070992;28;20057;-88
2022/10/14 07:41:22;;;;;;;;;;;11.70;99.90;;;;;;5070297;28;20624;-88
2022/10/14 07:43:48;;;;;;;;;;;11.70;99.90;;;;;;5070788;28;20142;-88
2022/10/14 07:46:15;;;;;;;;;;;11.80;99.90;;;;;;5079713;28;19938;-88
2022/10/14 07:48:41;;;;;;;;;;;11.80;99.90;;;;;;5054539;28;19911;-89
2022/10/14 07:51:26;;;;;;;;;;;11.90;99.90;;;;;;5069407;28;20481;-88
2022/10/14 07:53:52;;;;;;;;;;;12.00;99.90;;;;;;5067802;28;20077;-89
2022/10/14 07:56:18;;;;;;;;;;;12.10;99.90;;;;;;5062243;28;19908;-89
2022/10/14 07:58:45;;;;;;;;;;;12.20;99.90;;;;;;5068679;28;20033;-89
2022/10/14 08:01:11;;;;;;;;;;;12.30;99.90;;;;;;5048720;28;19923;-89
2022/10/14 08:03:36;;;;;;;;;;;12.30;99.90;;;;;;5084922;28;20045;-88
2022/10/14 08:06:03;;;;;;;;;;;12.40;99.90;;;;;;5076002;28;20041;-88
2022/10/14 08:08:29;;;;;;;;;;;12.40;99.90;;;;;;5068077;28;19911;-88
2022/10/14 08:10:59;;;;;;;;;;;12.60;99.90;;;;;;5083150;28;20125;-89
2022/10/14 08:13:24;;;;;;;;;;;12.70;99.90;;;;;;5069748;28;20050;-89
2022/10/14 08:15:50;;;;;;;;;;;12.80;99.90;;;;;;5095708;28;20181;-89
2022/10/14 08:18:15;;;;;;;;;;;12.80;99.90;;;;;;5072828;28;20043;-89
2022/10/14 08:20:41;;;;;;;;;;;12.90;99.90;;;;;;5065161;28;20080;-89
2022/10/14 08:23:07;;;;;;;;;;;13.20;99.90;;;;;;5077573;28;20506;-88
2022/10/14 08:25:33;;;;;;;;;;;13.30;99.90;;;;;;5069247;28;20027;-89
2022/10/14 08:27:58;;;;;;;;;;;13.50;99.90;;;;;;5071799;28;20042;-89
2022/10/14 08:30:24;;;;;;;;;;;13.60;99.90;;;;;;5075384;28;19914;-89
2022/10/14 08:32:50;;;;;;;;;;;13.60;99.90;;;;;;5077512;28;19935;-89
2022/10/14 08:35:15;;;;;;;;;;;13.60;99.90;;;;;;5076645;28;20039;-88
2022/10/14 08:37:41;;;;;;;;;;;13.70;99.90;;;;;;5064631;28;19962;-88
2022/10/14 08:40:07;;;;;;;;;;;13.80;99.90;;;;;;5076832;28;19958;-88
2022/10/14 08:42:36;;;;;;;;;;;13.90;99.90;;;;;;5053850;28;20035;-89
2022/10/14 08:45:07;;;;;;;;;;;14.10;99.90;;;;;;5078557;28;20026;-89
2022/10/14 08:47:39;;;;;;;;;;;14.00;99.90;;;;;;5071243;28;19914;-88
2022/10/14 08:50:24;;;;;;;;;;;14.20;99.90;;;;;;5069443;28;19908;-88
2022/10/14 08:52:54;;;;;;;;;;;14.20;99.90;;;;;;5064879;28;20025;-87
2022/10/14 08:55:26;;;;;;;;;;;14.00;99.90;;;;;;5080578;28;19912;-88
2022/10/14 08:58:00;;;;;;;;;;;13.70;99.90;;;;;;5066679;28;19923;-89
2022/10/14 09:00:27;;;;;;;;;;;13.70;99.90;;;;;;5078389;28;20044;-88
2022/10/14 09:06:23;;;;;;;;;;;13.70;99.90;;;;;;5073577;28;19919;-88
2022/10/14 09:11:55;;;;;;;;;;;13.40;99.90;;;;;;5063732;28;19943;-88
2022/10/14 09:14:23;;;;;;;;;;;13.70;99.90;;;;;;5068271;28;19998;-89
2022/10/14 09:16:51;;;;;;;;;;;13.80;99.90;;;;;;5061976;28;20039;-88
2022/10/14 09:19:21;;;;;;;;;;;13.80;99.90;;;;;;5082039;28;20347;-88
2022/10/14 09:22:14;;;;;;;;;;;13.80;99.90;;;;;;5063952;28;20035;-89
2022/10/14 09:28:09;;;;;;;;;;;13.80;99.90;;;;;;5064120;28;20397;-88
2022/10/14 09:30:36;;;;;;;;;;;13.70;99.90;;;;;;5072086;28;20121;-88
2022/10/14 09:33:03;;;;;;;;;;;13.70;99.90;;;;;;5071792;28;20041;-88
2022/10/14 09:35:31;;;;;;;;;;;13.70;99.90;;;;;;5062850;28;19904;-88
2022/10/14 09:37:56;;;;;;;;;;;13.70;99.90;;;;;;5081075;28;20068;-88
2022/10/14 09:40:25;;;;;;;;;;;13.90;99.90;;;;;;5067434;28;20302;-88
2022/10/14 09:43:00;;;;;;;;;;;13.80;99.90;;;;;;5065788;28;20104;-88
2022/10/14 09:45:28;;;;;;;;;;;13.90;99.90;;;;;;5085877;28;20454;-88
2022/10/14 09:48:11;;;;;;;;;;;13.80;99.90;;;;;;5101582;28;19915;-88
2022/10/14 09:50:45;;;;;;;;;;;13.90;99.90;;;;;;5044879;28;19909;-88
2022/10/14 09:53:17;;;;;;;;;;;13.90;99.90;;;;;;5051576;28;19913;-89
2022/10/14 09:55:47;;;;;;;;;;;14.00;99.90;;;;;;5046594;28;20049;-88
2022/10/14 09:58:15;;;;;;;;;;;14.10;99.90;;;;;;5057217;28;20032;-89
2022/10/14 10:00:41;;;;;;;;;;;14.20;99.90;;;;;;5049458;28;20046;-89
2022/10/14 10:06:49;;;;;;;;;;;14.50;99.90;;;;;;5061965;28;19919;-88
2022/10/14 10:09:18;;;;;;;;;;;14.70;99.90;;;;;;5052274;28;20273;-88
2022/10/14 10:11:43;;;;;;;;;;;15.00;99.90;;;;;;5064101;28;19915;-88
2022/10/14 10:14:19;;;;;;;;;;;15.00;99.90;;;;;;5070773;28;20356;-88
2022/10/14 10:16:45;;;;;;;;;;;14.90;99.90;;;;;;5062935;28;20467;-89
2022/10/14 10:19:31;;;;;;;;;;;15.00;99.90;;;;;;5072273;28;20098;-88
2022/10/14 10:22:18;;;;;;;;;;;15.10;99.90;;;;;;5073239;28;20054;-88
2022/10/14 10:25:13;;;;;;;;;;;15.40;99.90;;;;;;5058414;28;20039;-88
2022/10/14 10:27:40;;;;;;;;;;;15.60;99.90;;;;;;5065899;28;20189;-88
2022/10/14 10:30:26;;;;;;;;;;;15.50;99.90;;;;;;5062116;28;20038;-88
2022/10/14 10:33:18;;;;;;;;;;;15.90;99.90;;;;;;5064475;28;20042;-88
2022/10/14 10:36:08;;;;;;;;;;;16.20;99.90;;;;;;5069688;28;20127;-89
2022/10/14 10:38:53;;;;;;;;;;;16.70;99.90;;;;;;5073270;28;20032;-89
2022/10/14 10:41:57;;;;;;;;;;;16.60;99.90;;;;;;5059419;28;19916;-88
2022/10/14 10:44:39;;;;;;;;;;;16.10;99.90;;;;;;5058560;28;20008;-88
2022/10/14 10:47:23;;;;;;;;;;;15.90;99.90;;;;;;5050428;28;20044;-89
2022/10/14 10:49:48;;;;;;;;;;;16.20;99.90;;;;;;5071911;28;19916;-88
2022/10/14 10:52:17;;;;;;;;;;;16.40;99.90;;;;;;5064043;28;20699;-88
2022/10/14 10:57:54;;;;;;;;;;;16.90;99.90;;;;;;5078817;28;19969;-88
2022/10/14 11:00:22;;;;;;;;;;;17.10;99.90;;;;;;5081532;28;20495;-88
2022/10/14 11:02:53;;;;;;;;;;;17.10;99.90;;;;;;5062478;28;20118;-88
2022/10/14 11:05:28;;;;;;;;;;;17.00;99.90;;;;;;5069842;28;20162;-88
2022/10/14 11:13:58;;;;;;;;;;;16.60;99.90;;;;;;5079358;28;20415;-88
2022/10/14 11:16:26;;;;;;;;;;;16.90;99.90;;;;;;5080380;28;20059;-89
2022/10/14 11:19:10;;;;;;;;;;;17.10;99.90;;;;;;5059694;28;20057;-88
2022/10/14 11:21:36;;;;;;;;;;;16.90;99.90;;;;;;5065022;28;20056;-88
2022/10/14 11:24:22;;;;;;;;;;;16.50;99.90;;;;;;5061841;28;20074;-88
2022/10/14 11:27:01;;;;;;;;;;;16.40;99.90;;;;;;5063519;28;20051;-88
2022/10/14 11:29:45;;;;;;;;;;;16.10;99.90;;;;;;5070975;28;20138;-88
2022/10/14 11:32:23;;;;;;;;;;;16.00;99.90;;;;;;5063804;28;20047;-89
2022/10/14 11:35:01;;;;;;;;;;;15.90;99.90;;;;;;5049263;28;20100;-88
2022/10/14 11:37:45;;;;;;;;;;;15.70;99.90;;;;;;5064920;28;20031;-88
2022/10/14 11:40:20;;;;;;;;;;;15.30;99.90;;;;;;5040471;28;20047;-88
2022/10/14 11:42:51;;;;;;;;;;;14.80;99.90;;;;;;5059512;28;20057;-88
2022/10/14 11:45:23;;;;;;;;;;;14.50;99.90;;;;;;5063855;28;20081;-88
2022/10/14 11:47:59;;;;;;;;;;;14.30;99.90;;;;;;5077755;28;20023;-88
2022/10/14 11:50:29;;;;;;;;;;;14.10;99.90;;;;;;5066404;28;20051;-88
2022/10/14 11:52:57;;;;;;;;;;;14.10;99.90;;;;;;5068995;28;19911;-88
2022/10/14 11:55:23;;;;;;;;;;;14.20;99.90;;;;;;5060800;28;20038;-89
2022/10/14 11:57:57;;;;;;;;;;;14.40;99.90;;;;;;5061702;28;20495;-89
2022/10/14 12:03:42;;;;;;;;;;;14.30;99.90;;;;;;5060140;28;20043;-90
2022/10/14 12:06:16;;;;;;;;;;;14.30;99.90;;;;;;5072476;28;20078;-90
2022/10/14 12:08:45;;;;;;;;;;;14.20;99.90;;;;;;5078345;28;20057;-90
2022/10/14 12:11:17;;;;;;;;;;;14.10;99.90;;;;;;5075362;28;20020;-90
2022/10/14 12:17:20;;;;;;;;;;;13.70;99.90;;;;;;5072715;28;19978;-90
2022/10/14 12:19:46;;;;;;;;;;;13.50;99.90;;;;;;5085431;28;20057;-89
2022/10/14 12:25:19;;;;;;;;;;;13.40;99.90;;;;;;5070321;28;20042;-89
2022/10/14 12:27:45;;;;;;;;;;;13.20;99.90;;;;;;5075770;28;19958;-90
2022/10/14 12:30:29;;;;;;;;;;;13.20;99.90;;;;;;5076389;28;19912;-89
2022/10/14 12:33:15;;;;;;;;;;;13.10;99.90;;;;;;5064360;28;20380;-90
2022/10/14 12:35:49;;;;;;;;;;;13.10;99.90;;;;;;5053925;28;20028;-89
2022/10/14 12:38:16;;;;;;;;;;;13.20;99.90;;;;;;5063891;28;20028;-89
2022/10/14 12:40:42;;;;;;;;;;;13.20;99.90;;;;;;5072539;28;20039;-90
2022/10/14 12:43:13;;;;;;;;;;;13.30;99.90;;;;;;5071353;28;20611;-90
2022/10/14 12:45:46;;;;;;;;;;;13.40;99.90;;;;;;5075107;28;20127;-89
2022/10/14 12:48:11;;;;;;;;;;;13.40;99.90;;;;;;5080555;28;20028;-89
2022/10/14 12:50:38;;;;;;;;;;;13.50;99.90;;;;;;5073562;28;20035;-89
2022/10/14 12:53:25;;;;;;;;;;;13.40;99.90;;;;;;5079321;28;20522;-90
2022/10/14 12:56:21;;;;;;;;;;;13.40;99.90;;;;;;5067494;28;20075;-89
2022/10/14 12:58:55;;;;;;;;;;;13.40;99.90;;;;;;5077461;28;20128;-90
2022/10/14 13:01:20;;;;;;;;;;;13.40;99.90;;;;;;5083375;28;20043;-90
2022/10/14 13:03:52;;;;;;;;;;;13.20;99.90;;;;;;5078242;28;20029;-90
2022/10/14 13:06:26;;;;;;;;;;;13.10;99.90;;;;;;5070279;28;20509;-90
2022/10/14 13:09:10;;;;;;;;;;;13.00;99.90;;;;;;5079130;28;20032;-90
2022/10/14 13:11:37;;;;;;;;;;;13.00;99.90;;;;;;5085122;28;20035;-91
2022/10/14 13:14:21;;;;;;;;;;;13.10;99.90;;;;;;5066801;28;20035;-89
2022/10/14 13:16:50;;;;;;;;;;;13.30;99.90;;;;;;5068241;28;20028;-89
2022/10/14 13:19:36;;;;;;;;;;;13.20;99.90;;;;;;5083324;28;20034;-89
2022/10/14 13:22:11;;;;;;;;;;;13.30;99.90;;;;;;5074953;28;20044;-89
2022/10/14 13:24:37;;;;;;;;;;;13.30;99.90;;;;;;5080885;28;20021;-89
2022/10/14 13:27:11;;;;;;;;;;;13.30;99.90;;;;;;5075841;28;20068;-89
2022/10/14 13:29:55;;;;;;;;;;;13.40;99.90;;;;;;5095701;27;20116;-88
2022/10/14 13:32:42;;;;;;;;;;;13.50;99.90;;;;;;5068747;28;20024;-88
2022/10/14 13:35:11;;;;;;;;;;;13.50;99.90;;;;;;5055532;28;20253;-89
2022/10/14 13:37:44;;;;;;;;;;;13.40;99.90;;;;;;5073359;28;20035;-90
2022/10/14 13:40:22;;;;;;;;;;;13.40;99.90;;;;;;5064666;28;20044;-89
2022/10/14 13:42:53;;;;;;;;;;;13.30;99.90;;;;;;5079034;28;20041;-90
2022/10/14 13:45:21;;;;;;;;;;;13.30;99.90;;;;;;5083592;28;20021;-90
2022/10/14 13:47:47;;;;;;;;;;;13.30;99.90;;;;;;5071458;28;20066;-90
2022/10/14 13:50:18;;;;;;;;;;;13.20;99.90;;;;;;5079115;28;20486;-89
2022/10/14 13:52:49;;;;;;;;;;;13.20;99.90;;;;;;5096479;27;20063;-90
2022/10/14 13:55:16;;;;;;;;;;;13.20;99.90;;;;;;5078503;28;20032;-89
2022/10/14 13:58:03;;;;;;;;;;;13.20;99.90;;;;;;5063864;28;20114;-89
2022/10/14 14:00:33;;;;;;;;;;;13.20;99.90;;;;;;5089413;28;20031;-89
2022/10/14 14:03:00;;;;;;;;;;;13.20;99.90;;;;;;5056610;28;20024;-88
2022/10/14 14:05:27;;;;;;;;;;;13.20;99.90;;;;;;5071409;28;20118;-88
2022/10/14 14:07:53;;;;;;;;;;;13.30;99.90;;;;;;5085871;28;20028;-89
2022/10/14 14:10:21;;;;;;;;;;;13.30;99.90;;;;;;5055832;28;20045;-88
2022/10/14 14:12:47;;;;;;;;;;;13.40;99.90;;;;;;5086596;28;20678;-89
2022/10/14 14:18:46;;;;;;;;;;;13.40;99.90;;;;;;5078293;28;20043;-90
2022/10/14 14:21:12;;;;;;;;;;;13.20;99.90;;;;;;5066672;28;19911;-89
2022/10/14 14:23:59;;;;;;;;;;;13.20;99.90;;;;;;5068873;28;19912;-88
2022/10/14 14:26:33;;;;;;;;;;;13.20;99.90;;;;;;5068894;28;20475;-88
2022/10/14 14:29:02;;;;;;;;;;;13.20;99.90;;;;;;5072066;28;20035;-89
2022/10/14 14:31:28;;;;;;;;;;;13.20;99.90;;;;;;5084363;28;20016;-89
2022/10/14 14:33:58;;;;;;;;;;;13.30;99.90;;;;;;5060642;28;20051;-89
2022/10/14 14:36:26;;;;;;;;;;;13.30;99.90;;;;;;5119564;27;20371;-91
2022/10/14 14:38:55;;;;;;;;;;;13.30;99.90;;;;;;5069690;28;19916;-89
2022/10/14 14:41:22;;;;;;;;;;;13.20;99.90;;;;;;5061659;28;19915;-90
2022/10/14 14:43:54;;;;;;;;;;;13.10;99.90;;;;;;5102857;28;20006;-89
2022/10/14 14:46:40;;;;;;;;;;;13.10;99.90;;;;;;5054353;28;20032;-89
2022/10/14 14:49:06;;;;;;;;;;;13.00;99.90;;;;;;5058659;28;19931;-88
2022/10/14 14:51:36;;;;;;;;;;;13.00;99.90;;;;;;5075490;28;19912;-88
2022/10/14 14:54:02;;;;;;;;;;;13.00;99.90;;;;;;5088664;28;20552;-89
2022/10/14 14:56:57;;;;;;;;;;;13.00;99.90;;;;;;5056608;28;20029;-89
2022/10/14 15:02:56;;;;;;;;;;;13.10;99.90;;;;;;5068998;28;20250;-88
2022/10/14 15:05:22;;;;;;;;;;;13.00;99.90;;;;;;5080874;28;20089;-88
2022/10/14 15:07:48;;;;;;;;;;;13.00;99.90;;;;;;5079307;28;20266;-89
2022/10/14 15:10:32;;;;;;;;;;;13.00;99.90;;;;;;5081508;28;20017;-89
2022/10/14 15:12:58;;;;;;;;;;;13.00;99.90;;;;;;5056068;28;20029;-88
2022/10/14 15:15:55;;;;;;;;;;;13.10;99.90;;;;;;5076120;28;20041;-89
2022/10/14 15:18:28;;;;;;;;;;;13.00;99.90;;;;;;5061069;28;20024;-89
2022/10/14 15:21:05;;;;;;;;;;;13.10;99.90;;;;;;5081016;28;19915;-89
2022/10/14 15:23:46;;;;;;;;;;;13.10;99.90;;;;;;5079877;28;20081;-88
2022/10/14 15:26:32;;;;;;;;;;;13.20;99.90;;;;;;5065417;28;20042;-89
2022/10/14 15:29:18;;;;;;;;;;;13.20;99.90;;;;;;5069981;28;19908;-88